Catàleg de serveis del Meteocat
Campanya meteocatpedra

Dades de l'estació automàtica Ulldecona - els Valentins

?
?
Resum diari 22:30 TU
Dades diàries de l'estació meteorològica
Temperatura mitjana 11.7 °C
Temperatura màxima 16.2 °C 14:05 TU
Temperatura mínima 7.9 °C 21:52 TU
Humitat relativa mitjana 70%
Precipitació acumulada 2.7 mm
Ratxa màxima del vent (2 m) 36.7 km/h - 303º 14:40 TU
Irradiació solar global 7.5 MJ/m2

El tram horari està expressat en Temps Universal (TU). Cal sumar una hora en horari d'hivern i dues en horari d'estiu per passar a l'hora oficial.

Ulldecona - els Valentins

Metadades estació meteorol´gica
Municipi Ulldecona
Comarca Montsià
Altitud 210 m
Data alta 15.11.1990
Estat actual Operativa
Dades de període
Període
TU
TM
°C
TX
°C
TN
°C
HRM
%
PPT
mm
VVM (2 m)
km/h
DVM (2 m)
graus
VVX (2 m)
km/h
RS
W/m2
00:00 - 00:30 12.3 12.6 11.7 56 0.0 1.4 246 5.4 0
00:30 - 01:00 11.6 11.8 11.3 58 0.0 3.2 229 8.6 0
01:00 - 01:30 11.4 11.6 11.3 60 0.0 3.2 241 7.9 0
01:30 - 02:00 11.4 11.6 11.0 62 0.0 0.7 160 4.7 0
02:00 - 02:30 11.4 11.5 11.2 62 0.0 1.1 281 4.7 0
02:30 - 03:00 11.6 11.8 11.3 60 0.0 1.8 246 6.8 0
03:00 - 03:30 11.6 11.7 11.5 60 0.0 1.4 246 4.0 0
03:30 - 04:00 11.5 11.7 11.3 63 0.0 0.4 267 3.6 0
04:00 - 04:30 11.1 11.2 11.0 67 0.0 0.0 265 1.8 0
04:30 - 05:00 11.1 11.3 10.9 68 0.0 2.2 211 6.1 0
05:00 - 05:30 10.1 10.8 9.6 83 0.3 0.7 217 3.2 0
05:30 - 06:00 9.6 9.7 9.5 92 0.2 1.4 275 4.7 0
06:00 - 06:30 9.8 9.9 9.7 95 0.4 0.7 269 4.3 0
06:30 - 07:00 9.6 9.8 9.4 96 0.5 0.7 117 5.8 1
07:00 - 07:30 9.2 9.3 9.1 97 0.4 0.0 11 1.8 8
07:30 - 08:00 9.2 9.5 9.2 97 0.3 0.4 356 3.6 22
08:00 - 08:30 9.6 9.7 9.5 97 0.1 0.7 6 3.6 44
08:30 - 09:00 9.8 9.9 9.6 96 0.0 1.4 33 7.6 65
09:00 - 09:30 10.1 10.5 9.9 97 0.4 2.5 29 8.3 81
09:30 - 10:00 10.5 10.8 10.5 97 0.1 3.2 39 11.9 137
10:00 - 10:30 11.1 11.7 10.7 97 0.0 4.7 24 13.7 253
10:30 - 11:00 11.5 11.8 11.2 95 0.0 2.5 27 7.9 136
11:00 - 11:30 11.1 11.4 11.0 89 0.0 3.2 10 9.4 71
11:30 - 12:00 11.7 12.7 11.5 79 0.0 6.1 358 31.7 135
12:00 - 12:30 13.8 14.1 12.9 66 0.0 11.9 326 27.0 495
12:30 - 13:00 14.6 15.0 14.2 61 0.0 12.2 343 30.6 560
13:00 - 13:30 15.1 15.4 14.9 59 0.0 8.3 10 24.1 540
13:30 - 14:00 15.5 15.9 15.1 57 0.0 7.2 4 23.4 466
14:00 - 14:30 16.0 16.2 15.6 51 0.0 10.1 317 31.0 386
14:30 - 15:00 15.6 15.8 15.5 49 0.0 10.1 317 36.7 313
15:00 - 15:30 15.5 15.7 15.2 46 0.0 7.2 156 36.4 242
15:30 - 16:00 15.2 15.7 14.9 47 0.0 6.1 108 24.8 147
16:00 - 16:30 14.4 14.8 14.0 51 0.0 6.5 140 21.6 57
16:30 - 17:00 13.8 14.2 13.3 52 0.0 4.7 160 19.8 12
17:00 - 17:30 13.3 13.5 13.2 53 0.0 7.6 305 20.5 0
17:30 - 18:00 13.5 13.7 13.3 51 0.0 13.0 286 35.6 0
18:00 - 18:30 12.9 13.2 12.6 55 0.0 10.4 288 20.9 0
18:30 - 19:00 12.5 12.8 12.1 56 0.0 7.2 292 16.6 0
19:00 - 19:30 11.8 12.3 10.9 59 0.0 5.4 289 14.8 0
19:30 - 20:00 10.9 11.2 10.6 64 0.0 4.0 267 11.2 0
20:00 - 20:30 10.1 10.8 9.7 68 0.0 2.2 228 6.8 0
20:30 - 21:00 9.2 9.6 9.0 73 0.0 2.9 244 7.6 0
21:00 - 21:30 9.5 9.7 9.1 72 0.0 4.3 240 8.6 0
21:30 - 22:00 8.6 9.4 7.9 76 0.0 3.6 271 7.2 0
22:00 - 22:30 8.6 8.9 8.1 75 0.0 2.9 234 9.0 0
22:30 - 23:00 8.7 8.9 8.5 75 0.0 2.2 235 6.1 0

Les dades en taronja només han passat un control de qualitat automàtic. Resta pendent la seva validació definitiva.